sensor_id;sensor_type;location;lat;lon;timestamp;P1;durP1;ratioP1;P2;durP2;ratioP2
48185;SDS011;33978;47.432;18.916;2022-09-24T00:01:26;5.45;;;4.05;;
48185;SDS011;33978;47.432;18.916;2022-09-24T00:03:59;6.35;;;3.92;;
48185;SDS011;33978;47.432;18.916;2022-09-24T00:06:28;6.07;;;4.18;;
48185;SDS011;33978;47.432;18.916;2022-09-24T00:08:57;5.62;;;4.00;;
48185;SDS011;33978;47.432;18.916;2022-09-24T00:11:25;6.35;;;4.45;;
48185;SDS011;33978;47.432;18.916;2022-09-24T00:13:55;6.37;;;4.07;;
48185;SDS011;33978;47.432;18.916;2022-09-24T00:16:24;5.65;;;3.92;;
48185;SDS011;33978;47.432;18.916;2022-09-24T00:18:53;6.05;;;4.10;;
48185;SDS011;33978;47.432;18.916;2022-09-24T00:21:22;5.32;;;3.70;;
48185;SDS011;33978;47.432;18.916;2022-09-24T00:23:51;4.90;;;3.50;;
48185;SDS011;33978;47.432;18.916;2022-09-24T00:26:24;6.12;;;3.40;;
48185;SDS011;33978;47.432;18.916;2022-09-24T00:29:12;4.37;;;3.25;;
48185;SDS011;33978;47.432;18.916;2022-09-24T00:31:42;4.82;;;3.72;;
48185;SDS011;33978;47.432;18.916;2022-09-24T00:34:09;5.10;;;3.65;;
48185;SDS011;33978;47.432;18.916;2022-09-24T00:36:37;5.25;;;3.50;;
48185;SDS011;33978;47.432;18.916;2022-09-24T00:39:05;4.97;;;3.12;;
48185;SDS011;33978;47.432;18.916;2022-09-24T00:41:37;5.18;;;3.58;;
48185;SDS011;33978;47.432;18.916;2022-09-24T00:47:10;4.03;;;3.05;;
48185;SDS011;33978;47.432;18.916;2022-09-24T00:49:40;4.45;;;3.30;;
48185;SDS011;33978;47.432;18.916;2022-09-24T00:52:08;4.07;;;3.03;;
48185;SDS011;33978;47.432;18.916;2022-09-24T00:54:35;4.43;;;3.12;;
48185;SDS011;33978;47.432;18.916;2022-09-24T00:57:04;4.30;;;3.20;;
48185;SDS011;33978;47.432;18.916;2022-09-24T00:59:31;4.53;;;3.10;;
48185;SDS011;33978;47.432;18.916;2022-09-24T01:01:59;4.55;;;3.12;;
48185;SDS011;33978;47.432;18.916;2022-09-24T01:04:28;4.97;;;3.17;;
48185;SDS011;33978;47.432;18.916;2022-09-24T01:06:55;3.87;;;3.12;;
48185;SDS011;33978;47.432;18.916;2022-09-24T01:09:23;5.20;;;3.12;;
48185;SDS011;33978;47.432;18.916;2022-09-24T01:11:56;4.75;;;2.92;;
48185;SDS011;33978;47.432;18.916;2022-09-24T01:17:21;5.90;;;3.30;;
48185;SDS011;33978;47.432;18.916;2022-09-24T01:26:17;4.87;;;3.37;;
48185;SDS011;33978;47.432;18.916;2022-09-24T01:32:14;3.60;;;2.90;;
48185;SDS011;33978;47.432;18.916;2022-09-24T01:37:40;4.40;;;3.08;;
48185;SDS011;33978;47.432;18.916;2022-09-24T01:40:10;4.43;;;3.20;;
48185;SDS011;33978;47.432;18.916;2022-09-24T01:42:38;4.68;;;3.47;;
48185;SDS011;33978;47.432;18.916;2022-09-24T01:45:09;5.45;;;3.33;;
48185;SDS011;33978;47.432;18.916;2022-09-24T01:47:38;4.55;;;3.20;;
48185;SDS011;33978;47.432;18.916;2022-09-24T01:50:07;4.05;;;3.05;;
48185;SDS011;33978;47.432;18.916;2022-09-24T01:52:40;5.10;;;3.00;;
48185;SDS011;33978;47.432;18.916;2022-09-24T01:55:16;4.57;;;2.97;;
48185;SDS011;33978;47.432;18.916;2022-09-24T01:57:49;4.15;;;2.90;;
48185;SDS011;33978;47.432;18.916;2022-09-24T02:00:22;6.22;;;3.45;;
48185;SDS011;33978;47.432;18.916;2022-09-24T02:03:13;4.47;;;3.08;;
48185;SDS011;33978;47.432;18.916;2022-09-24T02:06:11;5.03;;;3.50;;
48185;SDS011;33978;47.432;18.916;2022-09-24T02:08:42;5.10;;;3.40;;
48185;SDS011;33978;47.432;18.916;2022-09-24T02:13:56;4.72;;;3.58;;
48185;SDS011;33978;47.432;18.916;2022-09-24T02:16:32;4.95;;;3.30;;
48185;SDS011;33978;47.432;18.916;2022-09-24T02:19:03;4.57;;;3.33;;
48185;SDS011;33978;47.432;18.916;2022-09-24T02:21:32;4.75;;;3.40;;
48185;SDS011;33978;47.432;18.916;2022-09-24T02:24:04;4.45;;;2.87;;
48185;SDS011;33978;47.432;18.916;2022-09-24T02:26:34;5.23;;;3.40;;
48185;SDS011;33978;47.432;18.916;2022-09-24T02:29:01;5.03;;;2.92;;
48185;SDS011;33978;47.432;18.916;2022-09-24T02:31:30;4.80;;;3.08;;
48185;SDS011;33978;47.432;18.916;2022-09-24T02:34:01;4.78;;;3.00;;
48185;SDS011;33978;47.432;18.916;2022-09-24T02:36:48;4.65;;;3.53;;
48185;SDS011;33978;47.432;18.916;2022-09-24T02:39:17;5.03;;;3.67;;
48185;SDS011;33978;47.432;18.916;2022-09-24T02:41:45;6.05;;;4.22;;
48185;SDS011;33978;47.432;18.916;2022-09-24T02:44:16;5.10;;;3.95;;
48185;SDS011;33978;47.432;18.916;2022-09-24T02:46:44;6.55;;;4.15;;
48185;SDS011;33978;47.432;18.916;2022-09-24T02:49:13;5.10;;;4.00;;
48185;SDS011;33978;47.432;18.916;2022-09-24T02:51:40;7.18;;;4.82;;
48185;SDS011;33978;47.432;18.916;2022-09-24T02:54:08;6.22;;;5.03;;
48185;SDS011;33978;47.432;18.916;2022-09-24T02:56:36;5.53;;;4.90;;
48185;SDS011;33978;47.432;18.916;2022-09-24T02:59:04;6.12;;;5.45;;
48185;SDS011;33978;47.432;18.916;2022-09-24T03:01:32;6.97;;;5.87;;
48185;SDS011;33978;47.432;18.916;2022-09-24T03:04:00;6.68;;;5.60;;
48185;SDS011;33978;47.432;18.916;2022-09-24T03:06:27;8.18;;;6.55;;
48185;SDS011;33978;47.432;18.916;2022-09-24T03:08:56;9.30;;;7.40;;
48185;SDS011;33978;47.432;18.916;2022-09-24T03:11:23;8.88;;;7.45;;
48185;SDS011;33978;47.432;18.916;2022-09-24T03:13:51;10.10;;;7.65;;
48185;SDS011;33978;47.432;18.916;2022-09-24T03:16:19;10.23;;;7.68;;
48185;SDS011;33978;47.432;18.916;2022-09-24T03:18:46;10.07;;;7.68;;
48185;SDS011;33978;47.432;18.916;2022-09-24T03:21:15;9.30;;;7.47;;
48185;SDS011;33978;47.432;18.916;2022-09-24T03:23:44;9.90;;;7.68;;
48185;SDS011;33978;47.432;18.916;2022-09-24T03:26:11;9.65;;;6.72;;
48185;SDS011;33978;47.432;18.916;2022-09-24T03:28:39;8.60;;;6.60;;
48185;SDS011;33978;47.432;18.916;2022-09-24T03:31:07;10.27;;;7.18;;
48185;SDS011;33978;47.432;18.916;2022-09-24T03:33:42;8.25;;;6.47;;
48185;SDS011;33978;47.432;18.916;2022-09-24T03:36:15;10.27;;;6.78;;
48185;SDS011;33978;47.432;18.916;2022-09-24T03:38:49;9.15;;;6.72;;
48185;SDS011;33978;47.432;18.916;2022-09-24T03:41:18;12.52;;;7.80;;
48185;SDS011;33978;47.432;18.916;2022-09-24T03:43:46;8.95;;;6.97;;
48185;SDS011;33978;47.432;18.916;2022-09-24T03:46:13;12.05;;;7.22;;
48185;SDS011;33978;47.432;18.916;2022-09-24T03:48:43;7.87;;;6.72;;
48185;SDS011;33978;47.432;18.916;2022-09-24T03:51:14;8.63;;;6.37;;
48185;SDS011;33978;47.432;18.916;2022-09-24T03:53:45;11.05;;;6.68;;
48185;SDS011;33978;47.432;18.916;2022-09-24T03:56:13;9.70;;;6.80;;
48185;SDS011;33978;47.432;18.916;2022-09-24T03:58:40;9.02;;;6.15;;
48185;SDS011;33978;47.432;18.916;2022-09-24T04:01:08;8.27;;;6.25;;
48185;SDS011;33978;47.432;18.916;2022-09-24T04:03:37;9.43;;;7.37;;
48185;SDS011;33978;47.432;18.916;2022-09-24T04:06:05;10.15;;;7.25;;
48185;SDS011;33978;47.432;18.916;2022-09-24T04:08:32;11.48;;;7.10;;
48185;SDS011;33978;47.432;18.916;2022-09-24T04:11:00;9.85;;;7.82;;
48185;SDS011;33978;47.432;18.916;2022-09-24T04:13:27;9.18;;;8.07;;
48185;SDS011;33978;47.432;18.916;2022-09-24T04:15:55;9.27;;;8.30;;
48185;SDS011;33978;47.432;18.916;2022-09-24T04:18:28;9.40;;;8.18;;
48185;SDS011;33978;47.432;18.916;2022-09-24T04:20:58;9.38;;;8.45;;
48185;SDS011;33978;47.432;18.916;2022-09-24T04:23:26;9.30;;;8.35;;
48185;SDS011;33978;47.432;18.916;2022-09-24T04:25:54;10.02;;;8.93;;
48185;SDS011;33978;47.432;18.916;2022-09-24T04:28:21;9.50;;;8.38;;
48185;SDS011;33978;47.432;18.916;2022-09-24T04:30:50;9.63;;;8.63;;
48185;SDS011;33978;47.432;18.916;2022-09-24T04:33:18;11.12;;;8.60;;
48185;SDS011;33978;47.432;18.916;2022-09-24T04:35:45;9.95;;;8.27;;
48185;SDS011;33978;47.432;18.916;2022-09-24T04:38:13;9.57;;;7.65;;
48185;SDS011;33978;47.432;18.916;2022-09-24T04:40:40;9.30;;;7.37;;
48185;SDS011;33978;47.432;18.916;2022-09-24T04:43:08;9.07;;;7.70;;
48185;SDS011;33978;47.432;18.916;2022-09-24T04:45:35;9.10;;;7.30;;
48185;SDS011;33978;47.432;18.916;2022-09-24T04:48:03;8.40;;;6.97;;
48185;SDS011;33978;47.432;18.916;2022-09-24T04:50:30;8.48;;;7.25;;
48185;SDS011;33978;47.432;18.916;2022-09-24T04:53:00;9.25;;;7.00;;
48185;SDS011;33978;47.432;18.916;2022-09-24T04:55:28;9.88;;;7.30;;
48185;SDS011;33978;47.432;18.916;2022-09-24T04:57:58;8.57;;;6.93;;
48185;SDS011;33978;47.432;18.916;2022-09-24T05:00:25;9.90;;;7.30;;
48185;SDS011;33978;47.432;18.916;2022-09-24T05:02:56;8.57;;;7.05;;
48185;SDS011;33978;47.432;18.916;2022-09-24T05:05:25;9.65;;;7.87;;
48185;SDS011;33978;47.432;18.916;2022-09-24T05:07:53;12.63;;;8.48;;
48185;SDS011;33978;47.432;18.916;2022-09-24T05:10:23;12.65;;;8.68;;
48185;SDS011;33978;47.432;18.916;2022-09-24T05:12:51;10.43;;;7.97;;
48185;SDS011;33978;47.432;18.916;2022-09-24T05:15:20;11.68;;;8.93;;
48185;SDS011;33978;47.432;18.916;2022-09-24T05:17:47;10.32;;;8.02;;
48185;SDS011;33978;47.432;18.916;2022-09-24T05:20:15;10.88;;;7.80;;
48185;SDS011;33978;47.432;18.916;2022-09-24T05:22:46;11.50;;;8.57;;
48185;SDS011;33978;47.432;18.916;2022-09-24T05:25:16;12.02;;;9.48;;
48185;SDS011;33978;47.432;18.916;2022-09-24T05:27:49;14.85;;;10.60;;
48185;SDS011;33978;47.432;18.916;2022-09-24T05:30:21;13.77;;;10.55;;
48185;SDS011;33978;47.432;18.916;2022-09-24T05:32:50;15.20;;;10.80;;
48185;SDS011;33978;47.432;18.916;2022-09-24T05:35:21;14.27;;;10.77;;
48185;SDS011;33978;47.432;18.916;2022-09-24T05:37:49;16.27;;;11.35;;
48185;SDS011;33978;47.432;18.916;2022-09-24T05:40:19;16.17;;;12.60;;
48185;SDS011;33978;47.432;18.916;2022-09-24T05:43:06;14.70;;;11.50;;
48185;SDS011;33978;47.432;18.916;2022-09-24T05:45:34;16.20;;;11.77;;
48185;SDS011;33978;47.432;18.916;2022-09-24T05:48:01;14.70;;;10.93;;
48185;SDS011;33978;47.432;18.916;2022-09-24T05:50:29;17.00;;;12.60;;
48185;SDS011;33978;47.432;18.916;2022-09-24T05:52:57;17.33;;;11.55;;
48185;SDS011;33978;47.432;18.916;2022-09-24T05:55:24;15.57;;;10.32;;
48185;SDS011;33978;47.432;18.916;2022-09-24T05:58:02;14.20;;;8.97;;
48185;SDS011;33978;47.432;18.916;2022-09-24T06:00:34;10.10;;;8.18;;
48185;SDS011;33978;47.432;18.916;2022-09-24T06:03:03;11.82;;;8.30;;
48185;SDS011;33978;47.432;18.916;2022-09-24T06:05:33;12.43;;;8.10;;
48185;SDS011;33978;47.432;18.916;2022-09-24T06:08:02;11.38;;;8.15;;
48185;SDS011;33978;47.432;18.916;2022-09-24T06:10:30;13.30;;;8.85;;
48185;SDS011;33978;47.432;18.916;2022-09-24T06:12:58;14.45;;;9.60;;
48185;SDS011;33978;47.432;18.916;2022-09-24T06:15:26;14.13;;;10.43;;
48185;SDS011;33978;47.432;18.916;2022-09-24T06:17:54;13.77;;;10.35;;
48185;SDS011;33978;47.432;18.916;2022-09-24T06:20:21;12.80;;;9.32;;
48185;SDS011;33978;47.432;18.916;2022-09-24T06:22:49;19.73;;;10.55;;
48185;SDS011;33978;47.432;18.916;2022-09-24T06:25:17;13.52;;;8.82;;
48185;SDS011;33978;47.432;18.916;2022-09-24T06:27:44;14.73;;;9.60;;
48185;SDS011;33978;47.432;18.916;2022-09-24T06:30:11;15.82;;;9.63;;
48185;SDS011;33978;47.432;18.916;2022-09-24T06:32:39;13.80;;;9.88;;
48185;SDS011;33978;47.432;18.916;2022-09-24T06:35:07;13.75;;;8.57;;
48185;SDS011;33978;47.432;18.916;2022-09-24T06:37:34;15.60;;;10.07;;
48185;SDS011;33978;47.432;18.916;2022-09-24T06:40:02;14.43;;;9.48;;
48185;SDS011;33978;47.432;18.916;2022-09-24T06:42:30;13.38;;;9.38;;
48185;SDS011;33978;47.432;18.916;2022-09-24T06:44:58;12.65;;;9.32;;
48185;SDS011;33978;47.432;18.916;2022-09-24T06:47:26;12.43;;;9.20;;
48185;SDS011;33978;47.432;18.916;2022-09-24T06:49:53;15.20;;;10.07;;
48185;SDS011;33978;47.432;18.916;2022-09-24T06:52:20;13.13;;;9.50;;
48185;SDS011;33978;47.432;18.916;2022-09-24T06:54:49;14.65;;;9.98;;
48185;SDS011;33978;47.432;18.916;2022-09-24T06:57:17;13.32;;;10.02;;
48185;SDS011;33978;47.432;18.916;2022-09-24T06:59:44;13.77;;;9.20;;
48185;SDS011;33978;47.432;18.916;2022-09-24T07:02:12;13.27;;;9.18;;
48185;SDS011;33978;47.432;18.916;2022-09-24T07:04:39;13.10;;;10.15;;
48185;SDS011;33978;47.432;18.916;2022-09-24T07:07:06;11.93;;;9.55;;
48185;SDS011;33978;47.432;18.916;2022-09-24T07:09:52;13.57;;;9.77;;
48185;SDS011;33978;47.432;18.916;2022-09-24T07:12:20;12.98;;;9.57;;
48185;SDS011;33978;47.432;18.916;2022-09-24T07:14:48;13.02;;;9.82;;
48185;SDS011;33978;47.432;18.916;2022-09-24T07:17:16;15.48;;;10.60;;
48185;SDS011;33978;47.432;18.916;2022-09-24T07:19:43;14.25;;;10.00;;
48185;SDS011;33978;47.432;18.916;2022-09-24T07:22:10;15.25;;;10.65;;
48185;SDS011;33978;47.432;18.916;2022-09-24T07:24:38;15.73;;;10.63;;
48185;SDS011;33978;47.432;18.916;2022-09-24T07:27:06;17.58;;;10.18;;
48185;SDS011;33978;47.432;18.916;2022-09-24T07:29:34;15.32;;;10.52;;
48185;SDS011;33978;47.432;18.916;2022-09-24T07:32:01;13.95;;;10.77;;
48185;SDS011;33978;47.432;18.916;2022-09-24T07:34:29;15.77;;;11.07;;
48185;SDS011;33978;47.432;18.916;2022-09-24T07:36:57;18.00;;;11.80;;
48185;SDS011;33978;47.432;18.916;2022-09-24T07:39:25;15.57;;;10.70;;
48185;SDS011;33978;47.432;18.916;2022-09-24T07:41:53;14.75;;;10.63;;
48185;SDS011;33978;47.432;18.916;2022-09-24T07:44:20;15.65;;;10.68;;
48185;SDS011;33978;47.432;18.916;2022-09-24T07:46:49;15.77;;;10.73;;
48185;SDS011;33978;47.432;18.916;2022-09-24T07:49:17;17.58;;;11.25;;
48185;SDS011;33978;47.432;18.916;2022-09-24T07:51:51;15.88;;;10.55;;
48185;SDS011;33978;47.432;18.916;2022-09-24T07:54:20;17.10;;;11.20;;
48185;SDS011;33978;47.432;18.916;2022-09-24T07:56:48;16.65;;;11.15;;
48185;SDS011;33978;47.432;18.916;2022-09-24T07:59:15;18.20;;;11.52;;
48185;SDS011;33978;47.432;18.916;2022-09-24T08:01:43;18.87;;;11.40;;
48185;SDS011;33978;47.432;18.916;2022-09-24T08:04:10;18.42;;;11.73;;
48185;SDS011;33978;47.432;18.916;2022-09-24T08:06:38;18.10;;;11.85;;
48185;SDS011;33978;47.432;18.916;2022-09-24T08:09:15;18.25;;;11.18;;
48185;SDS011;33978;47.432;18.916;2022-09-24T08:11:43;19.85;;;11.73;;
48185;SDS011;33978;47.432;18.916;2022-09-24T08:14:10;17.80;;;11.10;;
48185;SDS011;33978;47.432;18.916;2022-09-24T08:16:38;19.70;;;10.82;;
48185;SDS011;33978;47.432;18.916;2022-09-24T08:19:06;16.75;;;9.60;;
48185;SDS011;33978;47.432;18.916;2022-09-24T08:21:40;16.35;;;9.07;;
48185;SDS011;33978;47.432;18.916;2022-09-24T08:24:07;14.35;;;8.05;;
48185;SDS011;33978;47.432;18.916;2022-09-24T08:26:35;12.10;;;8.10;;
48185;SDS011;33978;47.432;18.916;2022-09-24T08:29:03;15.18;;;9.15;;
48185;SDS011;33978;47.432;18.916;2022-09-24T08:31:30;13.60;;;8.13;;
48185;SDS011;33978;47.432;18.916;2022-09-24T08:34:00;14.10;;;8.68;;
48185;SDS011;33978;47.432;18.916;2022-09-24T08:36:28;12.15;;;8.05;;
48185;SDS011;33978;47.432;18.916;2022-09-24T08:38:55;12.55;;;8.38;;
48185;SDS011;33978;47.432;18.916;2022-09-24T08:47:09;11.82;;;7.70;;
48185;SDS011;33978;47.432;18.916;2022-09-24T08:49:54;10.93;;;7.60;;
48185;SDS011;33978;47.432;18.916;2022-09-24T08:57:49;11.38;;;7.43;;
48185;SDS011;33978;47.432;18.916;2022-09-24T09:00:26;10.57;;;7.68;;
48185;SDS011;33978;47.432;18.916;2022-09-24T09:03:13;14.90;;;9.00;;
48185;SDS011;33978;47.432;18.916;2022-09-24T09:05:53;11.63;;;8.45;;
48185;SDS011;33978;47.432;18.916;2022-09-24T09:11:26;11.95;;;7.87;;
48185;SDS011;33978;47.432;18.916;2022-09-24T09:13:59;11.75;;;8.43;;
48185;SDS011;33978;47.432;18.916;2022-09-24T09:16:33;12.50;;;8.73;;
48185;SDS011;33978;47.432;18.916;2022-09-24T09:19:23;13.60;;;8.75;;
48185;SDS011;33978;47.432;18.916;2022-09-24T09:21:56;12.82;;;8.15;;
48185;SDS011;33978;47.432;18.916;2022-09-24T09:24:31;11.38;;;8.50;;
48185;SDS011;33978;47.432;18.916;2022-09-24T09:27:11;11.98;;;8.20;;
48185;SDS011;33978;47.432;18.916;2022-09-24T09:30:02;13.15;;;8.18;;
48185;SDS011;33978;47.432;18.916;2022-09-24T09:38:09;9.02;;;5.85;;
48185;SDS011;33978;47.432;18.916;2022-09-24T09:43:22;8.40;;;5.68;;
48185;SDS011;33978;47.432;18.916;2022-09-24T09:48:29;9.50;;;6.10;;
48185;SDS011;33978;47.432;18.916;2022-09-24T09:51:02;8.73;;;5.62;;
48185;SDS011;33978;47.432;18.916;2022-09-24T09:53:32;10.65;;;4.90;;
48185;SDS011;33978;47.432;18.916;2022-09-24T09:56:00;7.53;;;5.20;;
48185;SDS011;33978;47.432;18.916;2022-09-24T09:58:30;10.35;;;5.12;;
48185;SDS011;33978;47.432;18.916;2022-09-24T10:01:33;7.32;;;4.85;;
48185;SDS011;33978;47.432;18.916;2022-09-24T10:03:58;7.62;;;5.15;;
48185;SDS011;33978;47.432;18.916;2022-09-24T10:06:30;6.62;;;4.43;;
48185;SDS011;33978;47.432;18.916;2022-09-24T10:09:33;7.07;;;4.40;;
48185;SDS011;33978;47.432;18.916;2022-09-24T10:11:52;6.18;;;4.45;;
48185;SDS011;33978;47.432;18.916;2022-09-24T10:14:20;6.43;;;4.47;;
48185;SDS011;33978;47.432;18.916;2022-09-24T10:16:49;6.15;;;4.07;;
48185;SDS011;33978;47.432;18.916;2022-09-24T10:19:20;7.05;;;3.92;;
48185;SDS011;33978;47.432;18.916;2022-09-24T10:21:50;6.32;;;4.00;;
48185;SDS011;33978;47.432;18.916;2022-09-24T10:24:22;6.03;;;3.72;;
48185;SDS011;33978;47.432;18.916;2022-09-24T10:26:51;5.57;;;3.58;;
48185;SDS011;33978;47.432;18.916;2022-09-24T10:29:25;5.47;;;2.90;;
48185;SDS011;33978;47.432;18.916;2022-09-24T10:32:16;4.47;;;3.05;;
48185;SDS011;33978;47.432;18.916;2022-09-24T10:35:01;5.57;;;3.20;;
48185;SDS011;33978;47.432;18.916;2022-09-24T10:37:33;5.65;;;3.00;;
48185;SDS011;33978;47.432;18.916;2022-09-24T10:40:23;4.00;;;2.50;;
48185;SDS011;33978;47.432;18.916;2022-09-24T10:43:01;3.75;;;2.50;;
48185;SDS011;33978;47.432;18.916;2022-09-24T10:45:35;3.97;;;2.37;;
48185;SDS011;33978;47.432;18.916;2022-09-24T10:50:58;4.82;;;2.53;;
48185;SDS011;33978;47.432;18.916;2022-09-24T10:53:38;4.47;;;2.47;;
48185;SDS011;33978;47.432;18.916;2022-09-24T10:56:28;5.30;;;2.45;;
48185;SDS011;33978;47.432;18.916;2022-09-24T11:10:16;4.12;;;2.60;;
48185;SDS011;33978;47.432;18.916;2022-09-24T11:29:27;2.67;;;2.08;;
48185;SDS011;33978;47.432;18.916;2022-09-24T11:32:48;2.72;;;1.90;;
48185;SDS011;33978;47.432;18.916;2022-09-24T11:43:16;4.22;;;2.00;;
48185;SDS011;33978;47.432;18.916;2022-09-24T11:45:56;4.95;;;2.30;;
48185;SDS011;33978;47.432;18.916;2022-09-24T11:51:16;4.82;;;2.50;;
48185;SDS011;33978;47.432;18.916;2022-09-24T11:56:31;2.75;;;2.10;;
48185;SDS011;33978;47.432;18.916;2022-09-24T11:59:08;2.60;;;2.00;;
48185;SDS011;33978;47.432;18.916;2022-09-24T12:02:10;2.22;;;1.80;;
48185;SDS011;33978;47.432;18.916;2022-09-24T12:04:53;2.65;;;1.92;;
48185;SDS011;33978;47.432;18.916;2022-09-24T12:07:46;3.00;;;2.10;;
48185;SDS011;33978;47.432;18.916;2022-09-24T12:21:14;2.58;;;1.95;;
48185;SDS011;33978;47.432;18.916;2022-09-24T12:23:45;2.58;;;2.03;;
48185;SDS011;33978;47.432;18.916;2022-09-24T12:26:15;6.45;;;2.25;;
48185;SDS011;33978;47.432;18.916;2022-09-24T12:28:58;2.58;;;1.95;;
48185;SDS011;33978;47.432;18.916;2022-09-24T12:31:50;3.47;;;1.92;;
48185;SDS011;33978;47.432;18.916;2022-09-24T12:34:54;4.53;;;2.00;;
48185;SDS011;33978;47.432;18.916;2022-09-24T12:37:34;3.62;;;2.20;;
48185;SDS011;33978;47.432;18.916;2022-09-24T12:40:12;3.00;;;2.10;;
48185;SDS011;33978;47.432;18.916;2022-09-24T12:42:48;3.00;;;2.00;;
48185;SDS011;33978;47.432;18.916;2022-09-24T12:45:18;5.10;;;2.45;;
48185;SDS011;33978;47.432;18.916;2022-09-24T12:47:54;4.20;;;2.00;;
48185;SDS011;33978;47.432;18.916;2022-09-24T12:50:29;3.33;;;2.30;;
48185;SDS011;33978;47.432;18.916;2022-09-24T12:52:58;2.40;;;1.87;;
48185;SDS011;33978;47.432;18.916;2022-09-24T12:55:27;5.40;;;2.15;;
48185;SDS011;33978;47.432;18.916;2022-09-24T13:00:35;3.83;;;2.30;;
48185;SDS011;33978;47.432;18.916;2022-09-24T13:06:02;2.58;;;2.10;;
48185;SDS011;33978;47.432;18.916;2022-09-24T13:08:38;3.78;;;2.22;;
48185;SDS011;33978;47.432;18.916;2022-09-24T13:11:26;3.75;;;2.35;;
48185;SDS011;33978;47.432;18.916;2022-09-24T13:13:58;3.35;;;2.20;;
48185;SDS011;33978;47.432;18.916;2022-09-24T13:16:38;3.95;;;2.17;;
48185;SDS011;33978;47.432;18.916;2022-09-24T13:19:18;3.17;;;1.90;;
48185;SDS011;33978;47.432;18.916;2022-09-24T13:21:54;6.68;;;2.15;;
48185;SDS011;33978;47.432;18.916;2022-09-24T13:24:24;3.33;;;2.05;;
48185;SDS011;33978;47.432;18.916;2022-09-24T13:29:51;2.40;;;2.00;;
48185;SDS011;33978;47.432;18.916;2022-09-24T13:32:28;4.00;;;2.25;;
48185;SDS011;33978;47.432;18.916;2022-09-24T13:35:05;2.65;;;1.95;;
48185;SDS011;33978;47.432;18.916;2022-09-24T13:37:39;3.55;;;2.00;;
48185;SDS011;33978;47.432;18.916;2022-09-24T13:40:18;3.60;;;1.85;;
48185;SDS011;33978;47.432;18.916;2022-09-24T13:42:57;2.30;;;1.90;;
48185;SDS011;33978;47.432;18.916;2022-09-24T13:45:29;5.72;;;2.00;;
48185;SDS011;33978;47.432;18.916;2022-09-24T13:47:59;4.25;;;2.25;;
48185;SDS011;33978;47.432;18.916;2022-09-24T13:50:34;3.80;;;2.42;;
48185;SDS011;33978;47.432;18.916;2022-09-24T13:53:04;3.97;;;2.10;;
48185;SDS011;33978;47.432;18.916;2022-09-24T13:55:38;2.70;;;1.95;;
48185;SDS011;33978;47.432;18.916;2022-09-24T13:58:30;3.70;;;2.25;;
48185;SDS011;33978;47.432;18.916;2022-09-24T14:01:03;2.53;;;1.85;;
48185;SDS011;33978;47.432;18.916;2022-09-24T14:03:39;3.00;;;2.15;;
48185;SDS011;33978;47.432;18.916;2022-09-24T14:06:09;2.95;;;2.12;;
48185;SDS011;33978;47.432;18.916;2022-09-24T14:08:41;2.92;;;2.28;;
48185;SDS011;33978;47.432;18.916;2022-09-24T14:11:13;3.17;;;2.03;;
48185;SDS011;33978;47.432;18.916;2022-09-24T14:13:51;2.85;;;2.15;;
48185;SDS011;33978;47.432;18.916;2022-09-24T14:16:23;4.47;;;2.40;;
48185;SDS011;33978;47.432;18.916;2022-09-24T14:19:00;2.65;;;2.15;;
48185;SDS011;33978;47.432;18.916;2022-09-24T14:21:37;4.43;;;2.58;;
48185;SDS011;33978;47.432;18.916;2022-09-24T14:24:23;3.08;;;2.33;;
48185;SDS011;33978;47.432;18.916;2022-09-24T14:26:53;4.35;;;2.78;;
48185;SDS011;33978;47.432;18.916;2022-09-24T14:29:28;3.20;;;2.30;;
48185;SDS011;33978;47.432;18.916;2022-09-24T14:32:19;4.97;;;2.12;;
48185;SDS011;33978;47.432;18.916;2022-09-24T14:34:52;4.37;;;2.70;;
48185;SDS011;33978;47.432;18.916;2022-09-24T14:37:32;5.15;;;2.85;;
48185;SDS011;33978;47.432;18.916;2022-09-24T14:40:11;4.57;;;2.33;;
48185;SDS011;33978;47.432;18.916;2022-09-24T14:42:42;3.72;;;2.45;;
48185;SDS011;33978;47.432;18.916;2022-09-24T14:45:18;3.67;;;2.70;;
48185;SDS011;33978;47.432;18.916;2022-09-24T14:47:47;5.22;;;2.95;;
48185;SDS011;33978;47.432;18.916;2022-09-24T14:50:32;4.18;;;2.80;;
48185;SDS011;33978;47.432;18.916;2022-09-24T14:53:38;4.45;;;2.95;;
48185;SDS011;33978;47.432;18.916;2022-09-24T14:56:18;4.15;;;2.78;;
48185;SDS011;33978;47.432;18.916;2022-09-24T14:58:46;3.58;;;2.50;;
48185;SDS011;33978;47.432;18.916;2022-09-24T15:01:15;4.60;;;2.80;;
48185;SDS011;33978;47.432;18.916;2022-09-24T15:03:49;4.90;;;2.78;;
48185;SDS011;33978;47.432;18.916;2022-09-24T15:08:59;4.50;;;2.65;;
48185;SDS011;33978;47.432;18.916;2022-09-24T15:11:28;5.07;;;3.08;;
48185;SDS011;33978;47.432;18.916;2022-09-24T15:16:33;5.00;;;3.00;;
48185;SDS011;33978;47.432;18.916;2022-09-24T15:21:48;5.22;;;3.05;;
48185;SDS011;33978;47.432;18.916;2022-09-24T15:24:18;7.32;;;3.10;;
48185;SDS011;33978;47.432;18.916;2022-09-24T15:26:47;6.80;;;3.58;;
48185;SDS011;33978;47.432;18.916;2022-09-24T15:29:24;8.73;;;5.57;;
48185;SDS011;33978;47.432;18.916;2022-09-24T15:31:52;9.68;;;5.60;;
48185;SDS011;33978;47.432;18.916;2022-09-24T15:34:21;7.47;;;5.20;;
48185;SDS011;33978;47.432;18.916;2022-09-24T15:36:52;7.07;;;4.55;;
48185;SDS011;33978;47.432;18.916;2022-09-24T15:39:21;7.15;;;4.93;;
48185;SDS011;33978;47.432;18.916;2022-09-24T15:41:51;9.63;;;5.25;;
48185;SDS011;33978;47.432;18.916;2022-09-24T15:44:20;6.95;;;4.70;;
48185;SDS011;33978;47.432;18.916;2022-09-24T15:46:49;13.00;;;7.78;;
48185;SDS011;33978;47.432;18.916;2022-09-24T15:49:18;10.98;;;6.60;;
48185;SDS011;33978;47.432;18.916;2022-09-24T15:51:52;7.50;;;5.62;;
48185;SDS011;33978;47.432;18.916;2022-09-24T15:54:53;7.47;;;4.60;;
48185;SDS011;33978;47.432;18.916;2022-09-24T15:57:25;7.78;;;4.65;;
48185;SDS011;33978;47.432;18.916;2022-09-24T15:59:53;6.95;;;4.35;;
48185;SDS011;33978;47.432;18.916;2022-09-24T16:02:28;7.25;;;4.78;;
48185;SDS011;33978;47.432;18.916;2022-09-24T16:05:00;8.60;;;4.70;;
48185;SDS011;33978;47.432;18.916;2022-09-24T16:07:33;7.05;;;4.70;;
48185;SDS011;33978;47.432;18.916;2022-09-24T16:10:00;8.95;;;5.03;;
48185;SDS011;33978;47.432;18.916;2022-09-24T16:12:28;9.57;;;5.30;;
48185;SDS011;33978;47.432;18.916;2022-09-24T16:14:55;9.55;;;5.40;;
48185;SDS011;33978;47.432;18.916;2022-09-24T16:17:26;8.95;;;4.47;;
48185;SDS011;33978;47.432;18.916;2022-09-24T16:19:53;8.55;;;4.60;;
48185;SDS011;33978;47.432;18.916;2022-09-24T16:22:21;6.85;;;4.57;;
48185;SDS011;33978;47.432;18.916;2022-09-24T16:24:48;5.78;;;3.95;;
48185;SDS011;33978;47.432;18.916;2022-09-24T16:27:16;8.32;;;4.78;;
48185;SDS011;33978;47.432;18.916;2022-09-24T16:29:43;10.40;;;6.80;;
48185;SDS011;33978;47.432;18.916;2022-09-24T16:32:11;8.05;;;4.05;;
48185;SDS011;33978;47.432;18.916;2022-09-24T16:34:39;8.07;;;4.97;;
48185;SDS011;33978;47.432;18.916;2022-09-24T16:37:07;7.22;;;5.12;;
48185;SDS011;33978;47.432;18.916;2022-09-24T16:39:35;8.77;;;4.00;;
48185;SDS011;33978;47.432;18.916;2022-09-24T16:42:02;6.15;;;4.28;;
48185;SDS011;33978;47.432;18.916;2022-09-24T16:44:30;6.07;;;3.87;;
48185;SDS011;33978;47.432;18.916;2022-09-24T16:46:57;11.07;;;3.92;;
48185;SDS011;33978;47.432;18.916;2022-09-24T16:49:25;8.18;;;4.12;;
48185;SDS011;33978;47.432;18.916;2022-09-24T16:51:53;8.77;;;4.50;;
48185;SDS011;33978;47.432;18.916;2022-09-24T16:54:21;8.80;;;5.10;;